Middle Georgia Regional Airport
KMCN : now visible

Airfield :











YOU CAN JOIN US ON...

 
LOGIN :

Register | Disclaimer

   EN    FR    IT 

 









Legend :    VFR   Marginal VFR   IFR   Intensive IFR   Very Intensive IFR
Visi :
Ceiling :
>= 8 km
>= 3000ft
5 to 8 km
1000 to 3000 ft
1500m to 5 km
500 to 1000 ft
800 to 1500m
200 to 500 ft
< 800m
< 200 ft
Symbols :   Thunderstorms  Fog  Heavy snow  Heavy precipitations  Wind > 20 kt






- Airport Elevation : 354 ft
- IATA code : MCN


KMCN - Middle Georgia Regional

CURRENT METAR :
  • 250553Z AUTO 07006KT 10SM BKN044 BKN060 BKN080 22/20 A3004 RMK AO2 SLP168 60003 T02220200 10272 20206 51009

EXPIRED METARs :
  • 250453Z AUTO 00000KT 10SM FEW045 FEW090 22/19 A3004 RMK AO2 SLP167 T02170194 403440194
  • 250353Z AUTO 00000KT 10SM CLR 21/20 A3004 RMK AO2 SLP166 T02110200

TAF KMCN
Valid from the 25 at 06:00 until the 26 at 06:00 UTC


250543Z 2506/2606 10005KT P6SM SCT040 BKN120
FM250800 10005KT P6SM SCT020 BKN200
FM251500 10007KT P6SM SCT035
FM251800 10010KT P6SM VCSH BKN050
TEMPO 2520/2524 4SM TSRA BKN025CB
FM260300 09007KT P6SM VCSH BKN030
KZTL FIR / North America



MET'MAP, your aeronautical weather chart ! - Copyright ORBIFLY December 2007 - Disclaimer

ORBIFLY MET'MAP TEAM :

Programming & Development : Alexandra Zaïnal
Concept & original design : Baudouin d'Aumeries
Assistance for programming : Marc-Olivier Méhu
Technical & hardware support : Manuel Goepfert

Contact : metmap@orbifly.com




SOURCES & CREDITS :

   NOAA       Earth
Advisory